Aviation Weather View - Albury, NSW
Albury
METAR YMAY 021330Z 07004KT 9999 19/15 Q1016
ADVISORY INFORMATION ONLY.
Information and images sourced on a "best effort" basis from
our own station 2.7NM north of the field at 1016ft AMSL.
Weather information is NOT from the Albury Airport.

Contact Ross on 0409-578-660
Updated 1400Z (03-Dec-2022 at 01:00:01 local)
Temperature 17.2 Deg C
QNH is 1016
Humidity is 100% RH
Dewpoint is 17.2 Deg C
Estimated Cloudbase is BELOW 1000 feet amsl
Wind: 4 KT, gusting to 9 KT from 011 degrees magnetic (359 true)
Runway 07 Crosswind 3KT Left to Right
Runway 25 Crosswind 3KT Right to Left 2KT downwind
Wind last 10 minutes: Average 4 KT
Solar Insolation: 0 W/m^2

TWR: 123.25 SMC: 121.8 AWIS: 134.525 ATIS: 115.6/133.85 Map
How to interpret the wind rose
Wind Rose
Solar Radiation Decoded METAR data
Albury Airport (94896, YMAY)
WMO Index: 95896
ID Name: YMAY
Date/Time: 02-Dec-2022 1330 UTC
Lat/Lon: 36.07S 146.95E
Wind: 070 deg true at 04.0 knots
Temperature: 18.7 deg C
Dewpoint: 14.8 deg C
QNH: 1016.0
Rain since 9am: 0.0
Rain last 10 mins: 0.0
Visibility: -9999 metres
AutoVisibility: 10000 metres
Max Wind Gust last 10 mins: 06.0 knots

Calculated humidity: 78.1 %RH